sensor_id;sensor_type;location;lat;lon;timestamp;temperature;humidity
70269;DHT22;58514;48.398;-4.274;2022-09-09T00:01:51;16.30;99.90
70269;DHT22;58514;48.398;-4.274;2022-09-09T00:04:21;16.30;99.90
70269;DHT22;58514;48.398;-4.274;2022-09-09T00:06:54;16.30;99.90
70269;DHT22;58514;48.398;-4.274;2022-09-09T00:09:27;16.30;99.90
70269;DHT22;58514;48.398;-4.274;2022-09-09T00:16:54;16.40;99.90
70269;DHT22;58514;48.398;-4.274;2022-09-09T00:22:19;16.40;99.90
70269;DHT22;58514;48.398;-4.274;2022-09-09T00:27:19;16.40;99.90
70269;DHT22;58514;48.398;-4.274;2022-09-09T00:29:51;16.40;99.90
70269;DHT22;58514;48.398;-4.274;2022-09-09T00:32:19;16.40;99.90
70269;DHT22;58514;48.398;-4.274;2022-09-09T00:34:55;16.40;99.90
70269;DHT22;58514;48.398;-4.274;2022-09-09T00:37:22;16.40;99.90
70269;DHT22;58514;48.398;-4.274;2022-09-09T00:39:50;16.30;99.90
70269;DHT22;58514;48.398;-4.274;2022-09-09T00:42:25;16.40;99.90
70269;DHT22;58514;48.398;-4.274;2022-09-09T00:47:34;16.40;99.90
70269;DHT22;58514;48.398;-4.274;2022-09-09T00:52:40;16.40;99.90
70269;DHT22;58514;48.398;-4.274;2022-09-09T00:57:40;16.50;99.90
70269;DHT22;58514;48.398;-4.274;2022-09-09T01:06:20;16.50;99.90
70269;DHT22;58514;48.398;-4.274;2022-09-09T01:11:10;16.50;99.90
70269;DHT22;58514;48.398;-4.274;2022-09-09T01:13:39;16.40;99.90
70269;DHT22;58514;48.398;-4.274;2022-09-09T01:16:08;16.40;99.90
70269;DHT22;58514;48.398;-4.274;2022-09-09T01:18:37;16.40;99.90
70269;DHT22;58514;48.398;-4.274;2022-09-09T01:28:52;16.40;99.90
70269;DHT22;58514;48.398;-4.274;2022-09-09T01:31:28;16.40;99.90
70269;DHT22;58514;48.398;-4.274;2022-09-09T01:33:55;16.40;99.90
70269;DHT22;58514;48.398;-4.274;2022-09-09T01:36:24;16.40;99.90
70269;DHT22;58514;48.398;-4.274;2022-09-09T01:38:50;16.30;99.90
70269;DHT22;58514;48.398;-4.274;2022-09-09T01:41:16;16.40;99.90
70269;DHT22;58514;48.398;-4.274;2022-09-09T01:43:41;16.40;99.90
70269;DHT22;58514;48.398;-4.274;2022-09-09T01:46:07;16.40;99.90
70269;DHT22;58514;48.398;-4.274;2022-09-09T01:54:21;16.30;99.90
70269;DHT22;58514;48.398;-4.274;2022-09-09T01:57:01;16.30;99.90
70269;DHT22;58514;48.398;-4.274;2022-09-09T02:06:56;16.30;99.90
70269;DHT22;58514;48.398;-4.274;2022-09-09T02:09:22;16.20;99.90
70269;DHT22;58514;48.398;-4.274;2022-09-09T02:11:49;16.20;99.90
70269;DHT22;58514;48.398;-4.274;2022-09-09T02:14:24;16.30;99.90
70269;DHT22;58514;48.398;-4.274;2022-09-09T02:16:51;16.30;99.90
70269;DHT22;58514;48.398;-4.274;2022-09-09T02:19:21;16.20;99.90
70269;DHT22;58514;48.398;-4.274;2022-09-09T02:21:51;16.30;99.90
70269;DHT22;58514;48.398;-4.274;2022-09-09T02:24:18;16.30;99.90
70269;DHT22;58514;48.398;-4.274;2022-09-09T02:26:44;16.30;99.90
70269;DHT22;58514;48.398;-4.274;2022-09-09T02:29:13;16.30;99.90
70269;DHT22;58514;48.398;-4.274;2022-09-09T02:31:39;16.30;99.90
70269;DHT22;58514;48.398;-4.274;2022-09-09T02:34:06;16.30;99.90
70269;DHT22;58514;48.398;-4.274;2022-09-09T02:36:36;16.30;99.90
70269;DHT22;58514;48.398;-4.274;2022-09-09T02:39:03;16.30;99.90
70269;DHT22;58514;48.398;-4.274;2022-09-09T02:41:33;16.30;99.90
70269;DHT22;58514;48.398;-4.274;2022-09-09T02:44:13;16.30;99.90
70269;DHT22;58514;48.398;-4.274;2022-09-09T02:54:27;16.20;99.90
70269;DHT22;58514;48.398;-4.274;2022-09-09T02:56:56;16.20;99.90
70269;DHT22;58514;48.398;-4.274;2022-09-09T02:59:26;16.20;99.90
70269;DHT22;58514;48.398;-4.274;2022-09-09T03:01:52;16.20;99.90
70269;DHT22;58514;48.398;-4.274;2022-09-09T03:04:18;16.20;99.90
70269;DHT22;58514;48.398;-4.274;2022-09-09T03:06:44;16.20;99.90
70269;DHT22;58514;48.398;-4.274;2022-09-09T03:09:09;16.20;99.90
70269;DHT22;58514;48.398;-4.274;2022-09-09T03:11:36;16.20;99.90
70269;DHT22;58514;48.398;-4.274;2022-09-09T03:14:01;16.20;99.90
70269;DHT22;58514;48.398;-4.274;2022-09-09T03:16:27;16.20;99.90
70269;DHT22;58514;48.398;-4.274;2022-09-09T03:18:52;16.20;99.90
70269;DHT22;58514;48.398;-4.274;2022-09-09T03:21:18;16.20;99.90
70269;DHT22;58514;48.398;-4.274;2022-09-09T03:23:44;16.20;99.90
70269;DHT22;58514;48.398;-4.274;2022-09-09T03:26:10;16.20;99.90
70269;DHT22;58514;48.398;-4.274;2022-09-09T03:28:35;16.20;99.90
70269;DHT22;58514;48.398;-4.274;2022-09-09T03:31:01;16.20;99.90
70269;DHT22;58514;48.398;-4.274;2022-09-09T03:33:27;16.20;99.90
70269;DHT22;58514;48.398;-4.274;2022-09-09T03:35:54;16.20;99.90
70269;DHT22;58514;48.398;-4.274;2022-09-09T03:38:24;16.20;99.90
70269;DHT22;58514;48.398;-4.274;2022-09-09T03:40:53;16.30;99.90
70269;DHT22;58514;48.398;-4.274;2022-09-09T03:43:23;16.20;99.90
70269;DHT22;58514;48.398;-4.274;2022-09-09T03:45:48;16.20;99.90
70269;DHT22;58514;48.398;-4.274;2022-09-09T03:48:15;16.10;99.90
70269;DHT22;58514;48.398;-4.274;2022-09-09T03:50:47;16.20;99.90
70269;DHT22;58514;48.398;-4.274;2022-09-09T03:53:13;16.10;99.90
70269;DHT22;58514;48.398;-4.274;2022-09-09T03:55:39;16.10;99.90
70269;DHT22;58514;48.398;-4.274;2022-09-09T03:58:08;16.10;99.90
70269;DHT22;58514;48.398;-4.274;2022-09-09T04:00:33;16.10;99.90
70269;DHT22;58514;48.398;-4.274;2022-09-09T04:02:59;16.10;99.90
70269;DHT22;58514;48.398;-4.274;2022-09-09T04:05:25;16.20;99.90
70269;DHT22;58514;48.398;-4.274;2022-09-09T04:07:51;16.10;99.90
70269;DHT22;58514;48.398;-4.274;2022-09-09T04:10:16;16.10;99.90
70269;DHT22;58514;48.398;-4.274;2022-09-09T04:12:42;16.10;99.90
70269;DHT22;58514;48.398;-4.274;2022-09-09T04:15:07;16.10;99.90
70269;DHT22;58514;48.398;-4.274;2022-09-09T04:17:33;16.10;99.90
70269;DHT22;58514;48.398;-4.274;2022-09-09T04:19:59;16.10;99.90
70269;DHT22;58514;48.398;-4.274;2022-09-09T04:22:24;16.20;99.90
70269;DHT22;58514;48.398;-4.274;2022-09-09T04:24:50;16.20;99.90
70269;DHT22;58514;48.398;-4.274;2022-09-09T04:27:15;16.10;99.90
70269;DHT22;58514;48.398;-4.274;2022-09-09T04:29:41;16.10;99.90
70269;DHT22;58514;48.398;-4.274;2022-09-09T04:32:06;16.10;99.90
70269;DHT22;58514;48.398;-4.274;2022-09-09T04:34:32;16.10;99.90
70269;DHT22;58514;48.398;-4.274;2022-09-09T04:36:58;16.10;99.90
70269;DHT22;58514;48.398;-4.274;2022-09-09T04:39:24;16.10;99.90
70269;DHT22;58514;48.398;-4.274;2022-09-09T04:41:49;16.10;99.90
70269;DHT22;58514;48.398;-4.274;2022-09-09T04:44:15;16.10;99.90
70269;DHT22;58514;48.398;-4.274;2022-09-09T04:46:41;16.10;99.90
70269;DHT22;58514;48.398;-4.274;2022-09-09T04:49:06;16.10;99.90
70269;DHT22;58514;48.398;-4.274;2022-09-09T04:51:32;16.10;99.90
70269;DHT22;58514;48.398;-4.274;2022-09-09T04:53:58;16.10;99.90
70269;DHT22;58514;48.398;-4.274;2022-09-09T04:56:23;16.10;99.90
70269;DHT22;58514;48.398;-4.274;2022-09-09T04:58:52;16.20;99.90
70269;DHT22;58514;48.398;-4.274;2022-09-09T05:01:18;16.20;99.90
70269;DHT22;58514;48.398;-4.274;2022-09-09T05:03:45;16.20;99.90
70269;DHT22;58514;48.398;-4.274;2022-09-09T05:06:12;16.20;99.90
70269;DHT22;58514;48.398;-4.274;2022-09-09T05:08:38;16.10;99.90
70269;DHT22;58514;48.398;-4.274;2022-09-09T05:14:01;16.10;99.90
70269;DHT22;58514;48.398;-4.274;2022-09-09T05:16:26;16.10;99.90
70269;DHT22;58514;48.398;-4.274;2022-09-09T05:18:52;16.10;99.90
70269;DHT22;58514;48.398;-4.274;2022-09-09T05:21:18;16.10;99.90
70269;DHT22;58514;48.398;-4.274;2022-09-09T05:23:44;16.10;99.90
70269;DHT22;58514;48.398;-4.274;2022-09-09T05:26:14;16.10;99.90
70269;DHT22;58514;48.398;-4.274;2022-09-09T05:28:40;16.10;99.90
70269;DHT22;58514;48.398;-4.274;2022-09-09T05:31:06;16.10;99.90
70269;DHT22;58514;48.398;-4.274;2022-09-09T05:33:38;16.10;99.90
70269;DHT22;58514;48.398;-4.274;2022-09-09T05:36:07;16.10;99.90
70269;DHT22;58514;48.398;-4.274;2022-09-09T05:38:33;16.20;99.90
70269;DHT22;58514;48.398;-4.274;2022-09-09T05:40:59;16.10;99.90
70269;DHT22;58514;48.398;-4.274;2022-09-09T05:43:25;16.10;99.90
70269;DHT22;58514;48.398;-4.274;2022-09-09T05:48:33;16.20;99.90
70269;DHT22;58514;48.398;-4.274;2022-09-09T05:51:00;16.20;99.90
70269;DHT22;58514;48.398;-4.274;2022-09-09T05:53:29;16.20;99.90
70269;DHT22;58514;48.398;-4.274;2022-09-09T05:56:00;16.30;99.90
70269;DHT22;58514;48.398;-4.274;2022-09-09T05:58:25;16.30;99.90
70269;DHT22;58514;48.398;-4.274;2022-09-09T06:00:51;16.30;99.90
70269;DHT22;58514;48.398;-4.274;2022-09-09T06:03:17;16.30;99.90
70269;DHT22;58514;48.398;-4.274;2022-09-09T06:05:42;16.30;99.90
70269;DHT22;58514;48.398;-4.274;2022-09-09T06:08:08;16.30;99.90
70269;DHT22;58514;48.398;-4.274;2022-09-09T06:10:34;16.30;99.90
70269;DHT22;58514;48.398;-4.274;2022-09-09T06:12:59;16.40;99.90
70269;DHT22;58514;48.398;-4.274;2022-09-09T06:15:25;16.20;99.90
70269;DHT22;58514;48.398;-4.274;2022-09-09T06:17:55;16.40;99.90
70269;DHT22;58514;48.398;-4.274;2022-09-09T06:20:21;16.40;99.90
70269;DHT22;58514;48.398;-4.274;2022-09-09T06:22:47;16.30;99.90
70269;DHT22;58514;48.398;-4.274;2022-09-09T06:25:14;16.30;99.90
70269;DHT22;58514;48.398;-4.274;2022-09-09T06:27:39;16.30;99.90
70269;DHT22;58514;48.398;-4.274;2022-09-09T06:30:06;16.30;99.90
70269;DHT22;58514;48.398;-4.274;2022-09-09T06:32:31;16.30;99.90
70269;DHT22;58514;48.398;-4.274;2022-09-09T06:34:58;16.30;99.90
70269;DHT22;58514;48.398;-4.274;2022-09-09T06:37:26;16.30;99.90
70269;DHT22;58514;48.398;-4.274;2022-09-09T06:39:52;16.30;99.90
70269;DHT22;58514;48.398;-4.274;2022-09-09T06:42:19;16.20;99.90
70269;DHT22;58514;48.398;-4.274;2022-09-09T06:44:45;16.30;99.90
70269;DHT22;58514;48.398;-4.274;2022-09-09T06:47:11;16.20;99.90
70269;DHT22;58514;48.398;-4.274;2022-09-09T06:49:36;16.20;99.90
70269;DHT22;58514;48.398;-4.274;2022-09-09T06:52:02;16.30;99.90
70269;DHT22;58514;48.398;-4.274;2022-09-09T06:54:27;16.30;99.90
70269;DHT22;58514;48.398;-4.274;2022-09-09T06:56:53;16.30;99.90
70269;DHT22;58514;48.398;-4.274;2022-09-09T06:59:19;16.30;99.90
70269;DHT22;58514;48.398;-4.274;2022-09-09T07:01:44;16.30;99.90
70269;DHT22;58514;48.398;-4.274;2022-09-09T07:04:10;16.40;99.90
70269;DHT22;58514;48.398;-4.274;2022-09-09T07:06:37;16.40;99.90
70269;DHT22;58514;48.398;-4.274;2022-09-09T07:09:04;16.40;99.90
70269;DHT22;58514;48.398;-4.274;2022-09-09T07:11:40;16.40;99.90
70269;DHT22;58514;48.398;-4.274;2022-09-09T07:14:09;16.40;99.90
70269;DHT22;58514;48.398;-4.274;2022-09-09T07:16:38;16.40;99.90
70269;DHT22;58514;48.398;-4.274;2022-09-09T07:19:03;16.50;99.90
70269;DHT22;58514;48.398;-4.274;2022-09-09T07:21:29;16.50;99.90
70269;DHT22;58514;48.398;-4.274;2022-09-09T07:23:55;16.50;99.90
70269;DHT22;58514;48.398;-4.274;2022-09-09T07:26:23;16.50;99.90
70269;DHT22;58514;48.398;-4.274;2022-09-09T07:28:49;16.50;99.90
70269;DHT22;58514;48.398;-4.274;2022-09-09T07:31:16;16.60;99.90
70269;DHT22;58514;48.398;-4.274;2022-09-09T07:33:42;16.60;99.90
70269;DHT22;58514;48.398;-4.274;2022-09-09T07:36:09;16.60;99.90
70269;DHT22;58514;48.398;-4.274;2022-09-09T07:38:39;16.70;99.90
70269;DHT22;58514;48.398;-4.274;2022-09-09T07:41:08;16.70;99.90
70269;DHT22;58514;48.398;-4.274;2022-09-09T07:43:38;16.70;99.90
70269;DHT22;58514;48.398;-4.274;2022-09-09T07:46:04;16.70;99.90
70269;DHT22;58514;48.398;-4.274;2022-09-09T07:48:29;16.80;99.90
70269;DHT22;58514;48.398;-4.274;2022-09-09T07:51:06;16.80;99.90
70269;DHT22;58514;48.398;-4.274;2022-09-09T07:53:31;16.80;99.90
70269;DHT22;58514;48.398;-4.274;2022-09-09T07:56:08;16.80;99.90
70269;DHT22;58514;48.398;-4.274;2022-09-09T07:58:35;16.80;99.90
70269;DHT22;58514;48.398;-4.274;2022-09-09T08:01:05;16.80;99.90
70269;DHT22;58514;48.398;-4.274;2022-09-09T08:03:31;16.80;99.90
70269;DHT22;58514;48.398;-4.274;2022-09-09T08:05:59;16.90;99.90
70269;DHT22;58514;48.398;-4.274;2022-09-09T08:08:26;16.90;99.90
70269;DHT22;58514;48.398;-4.274;2022-09-09T08:10:52;16.90;99.90
70269;DHT22;58514;48.398;-4.274;2022-09-09T08:13:18;17.00;99.90
70269;DHT22;58514;48.398;-4.274;2022-09-09T08:15:43;17.00;99.90
70269;DHT22;58514;48.398;-4.274;2022-09-09T08:18:09;17.10;99.90
70269;DHT22;58514;48.398;-4.274;2022-09-09T08:20:35;17.10;99.90
70269;DHT22;58514;48.398;-4.274;2022-09-09T08:23:01;17.20;99.90
70269;DHT22;58514;48.398;-4.274;2022-09-09T08:25:27;17.20;99.90
70269;DHT22;58514;48.398;-4.274;2022-09-09T08:27:54;17.20;99.90
70269;DHT22;58514;48.398;-4.274;2022-09-09T08:30:19;17.20;99.90
70269;DHT22;58514;48.398;-4.274;2022-09-09T08:32:45;17.20;99.90
70269;DHT22;58514;48.398;-4.274;2022-09-09T08:35:10;17.30;99.90
70269;DHT22;58514;48.398;-4.274;2022-09-09T08:37:36;17.20;99.90
70269;DHT22;58514;48.398;-4.274;2022-09-09T08:40:02;17.30;99.90
70269;DHT22;58514;48.398;-4.274;2022-09-09T08:42:30;17.30;99.90
70269;DHT22;58514;48.398;-4.274;2022-09-09T08:52:44;17.50;99.90
70269;DHT22;58514;48.398;-4.274;2022-09-09T08:57:41;17.60;99.90
70269;DHT22;58514;48.398;-4.274;2022-09-09T09:00:09;17.70;99.90
70269;DHT22;58514;48.398;-4.274;2022-09-09T09:05:26;17.90;99.90
70269;DHT22;58514;48.398;-4.274;2022-09-09T09:13:20;18.30;99.90
70269;DHT22;58514;48.398;-4.274;2022-09-09T09:15:55;18.30;99.90
70269;DHT22;58514;48.398;-4.274;2022-09-09T09:18:23;18.30;99.90
70269;DHT22;58514;48.398;-4.274;2022-09-09T09:23:24;18.10;99.90
70269;DHT22;58514;48.398;-4.274;2022-09-09T09:25:55;18.10;99.90
70269;DHT22;58514;48.398;-4.274;2022-09-09T09:28:27;18.00;99.90
70269;DHT22;58514;48.398;-4.274;2022-09-09T09:36:11;17.90;99.90
70269;DHT22;58514;48.398;-4.274;2022-09-09T09:38:38;17.90;99.90
70269;DHT22;58514;48.398;-4.274;2022-09-09T09:41:05;17.90;99.90
70269;DHT22;58514;48.398;-4.274;2022-09-09T09:43:32;18.00;99.90
70269;DHT22;58514;48.398;-4.274;2022-09-09T09:45:58;18.00;99.90
70269;DHT22;58514;48.398;-4.274;2022-09-09T09:48:24;18.10;99.90
70269;DHT22;58514;48.398;-4.274;2022-09-09T09:53:23;18.10;99.90
70269;DHT22;58514;48.398;-4.274;2022-09-09T09:55:55;18.10;99.90
70269;DHT22;58514;48.398;-4.274;2022-09-09T09:58:21;18.10;99.90
70269;DHT22;58514;48.398;-4.274;2022-09-09T10:00:47;18.10;99.90
70269;DHT22;58514;48.398;-4.274;2022-09-09T10:03:25;18.10;99.90
70269;DHT22;58514;48.398;-4.274;2022-09-09T10:05:51;18.20;99.90
70269;DHT22;58514;48.398;-4.274;2022-09-09T10:08:18;18.40;99.90
70269;DHT22;58514;48.398;-4.274;2022-09-09T10:13:59;18.30;99.90
70269;DHT22;58514;48.398;-4.274;2022-09-09T10:18:53;18.40;99.90
70269;DHT22;58514;48.398;-4.274;2022-09-09T10:24:05;18.40;99.90
70269;DHT22;58514;48.398;-4.274;2022-09-09T10:26:37;18.30;99.90
70269;DHT22;58514;48.398;-4.274;2022-09-09T10:36:58;17.90;99.90
70269;DHT22;58514;48.398;-4.274;2022-09-09T10:39:35;17.90;99.90
70269;DHT22;58514;48.398;-4.274;2022-09-09T10:42:06;18.00;99.90
70269;DHT22;58514;48.398;-4.274;2022-09-09T10:56:58;18.90;99.90
70269;DHT22;58514;48.398;-4.274;2022-09-09T10:59:28;19.20;99.90
70269;DHT22;58514;48.398;-4.274;2022-09-09T11:02:02;19.30;99.90
70269;DHT22;58514;48.398;-4.274;2022-09-09T11:04:35;19.20;99.90
70269;DHT22;58514;48.398;-4.274;2022-09-09T11:07:05;19.10;99.90
70269;DHT22;58514;48.398;-4.274;2022-09-09T11:09:33;19.00;99.90
70269;DHT22;58514;48.398;-4.274;2022-09-09T11:12:02;18.80;99.90
70269;DHT22;58514;48.398;-4.274;2022-09-09T11:16:56;18.60;99.90
70269;DHT22;58514;48.398;-4.274;2022-09-09T11:21:52;18.40;99.90
70269;DHT22;58514;48.398;-4.274;2022-09-09T11:24:37;18.40;99.90
70269;DHT22;58514;48.398;-4.274;2022-09-09T11:27:14;18.40;99.90
70269;DHT22;58514;48.398;-4.274;2022-09-09T11:37:16;19.40;99.90
70269;DHT22;58514;48.398;-4.274;2022-09-09T11:44:38;19.70;99.90
70269;DHT22;58514;48.398;-4.274;2022-09-09T11:47:14;19.60;99.90
70269;DHT22;58514;48.398;-4.274;2022-09-09T11:49:41;19.40;96.60
70269;DHT22;58514;48.398;-4.274;2022-09-09T11:52:11;19.20;99.90
70269;DHT22;58514;48.398;-4.274;2022-09-09T11:54:44;19.10;99.40
70269;DHT22;58514;48.398;-4.274;2022-09-09T11:57:44;19.10;99.90
70269;DHT22;58514;48.398;-4.274;2022-09-09T12:00:04;19.10;99.90
70269;DHT22;58514;48.398;-4.274;2022-09-09T12:02:30;19.30;99.90
70269;DHT22;58514;48.398;-4.274;2022-09-09T12:05:08;19.60;99.90
70269;DHT22;58514;48.398;-4.274;2022-09-09T12:07:38;19.90;99.90
70269;DHT22;58514;48.398;-4.274;2022-09-09T12:12:36;20.70;99.90
70269;DHT22;58514;48.398;-4.274;2022-09-09T12:17:37;21.00;94.20
70269;DHT22;58514;48.398;-4.274;2022-09-09T12:30:21;19.80;95.30
70269;DHT22;58514;48.398;-4.274;2022-09-09T12:32:58;19.80;97.60
70269;DHT22;58514;48.398;-4.274;2022-09-09T12:35:26;19.90;97.40
70269;DHT22;58514;48.398;-4.274;2022-09-09T12:37:54;20.10;99.90
70269;DHT22;58514;48.398;-4.274;2022-09-09T12:40:26;20.20;95.40
70269;DHT22;58514;48.398;-4.274;2022-09-09T12:42:52;20.50;99.10
70269;DHT22;58514;48.398;-4.274;2022-09-09T12:45:19;20.80;99.90
70269;DHT22;58514;48.398;-4.274;2022-09-09T12:47:47;21.30;95.60
70269;DHT22;58514;48.398;-4.274;2022-09-09T12:50:17;21.70;92.70
70269;DHT22;58514;48.398;-4.274;2022-09-09T12:52:43;21.90;96.70
70269;DHT22;58514;48.398;-4.274;2022-09-09T12:55:20;22.20;91.00
70269;DHT22;58514;48.398;-4.274;2022-09-09T12:57:47;22.20;93.70
70269;DHT22;58514;48.398;-4.274;2022-09-09T13:00:16;22.10;93.70
70269;DHT22;58514;48.398;-4.274;2022-09-09T13:02:49;21.80;92.40
70269;DHT22;58514;48.398;-4.274;2022-09-09T13:05:17;21.50;92.50
70269;DHT22;58514;48.398;-4.274;2022-09-09T13:07:43;21.20;92.40
70269;DHT22;58514;48.398;-4.274;2022-09-09T13:10:13;21.00;93.40
70269;DHT22;58514;48.398;-4.274;2022-09-09T13:12:38;21.30;97.60
70269;DHT22;58514;48.398;-4.274;2022-09-09T13:15:04;21.70;95.70
70269;DHT22;58514;48.398;-4.274;2022-09-09T13:17:36;21.90;94.90
70269;DHT22;58514;48.398;-4.274;2022-09-09T13:20:01;22.00;95.60
70269;DHT22;58514;48.398;-4.274;2022-09-09T13:22:37;22.10;90.90
70269;DHT22;58514;48.398;-4.274;2022-09-09T13:27:38;21.90;91.70
70269;DHT22;58514;48.398;-4.274;2022-09-09T13:30:23;21.60;86.60
70269;DHT22;58514;48.398;-4.274;2022-09-09T13:35:34;21.20;93.20
70269;DHT22;58514;48.398;-4.274;2022-09-09T13:38:07;21.00;94.40
70269;DHT22;58514;48.398;-4.274;2022-09-09T13:40:37;20.90;93.10
70269;DHT22;58514;48.398;-4.274;2022-09-09T13:43:02;20.70;94.50
70269;DHT22;58514;48.398;-4.274;2022-09-09T13:45:28;20.70;94.50
70269;DHT22;58514;48.398;-4.274;2022-09-09T13:47:54;20.50;94.10
70269;DHT22;58514;48.398;-4.274;2022-09-09T13:50:21;20.30;92.80
70269;DHT22;58514;48.398;-4.274;2022-09-09T13:52:48;20.10;93.30
70269;DHT22;58514;48.398;-4.274;2022-09-09T13:55:17;20.10;95.90
70269;DHT22;58514;48.398;-4.274;2022-09-09T13:57:52;20.10;95.40
70269;DHT22;58514;48.398;-4.274;2022-09-09T14:00:18;20.10;95.40
70269;DHT22;58514;48.398;-4.274;2022-09-09T14:02:44;20.10;95.90
70269;DHT22;58514;48.398;-4.274;2022-09-09T14:05:09;20.10;96.30
70269;DHT22;58514;48.398;-4.274;2022-09-09T14:07:37;20.20;97.60
70269;DHT22;58514;48.398;-4.274;2022-09-09T14:10:04;20.20;97.40
70269;DHT22;58514;48.398;-4.274;2022-09-09T14:12:30;20.20;96.70
70269;DHT22;58514;48.398;-4.274;2022-09-09T14:14:55;20.10;95.00
70269;DHT22;58514;48.398;-4.274;2022-09-09T14:17:21;20.10;96.10
70269;DHT22;58514;48.398;-4.274;2022-09-09T14:19:47;20.00;96.50
70269;DHT22;58514;48.398;-4.274;2022-09-09T14:22:13;19.90;95.80
70269;DHT22;58514;48.398;-4.274;2022-09-09T14:24:38;19.90;95.30
70269;DHT22;58514;48.398;-4.274;2022-09-09T14:27:04;19.90;96.50
70269;DHT22;58514;48.398;-4.274;2022-09-09T14:29:29;19.80;95.60
70269;DHT22;58514;48.398;-4.274;2022-09-09T14:31:55;19.80;95.60
70269;DHT22;58514;48.398;-4.274;2022-09-09T14:34:21;19.80;94.60
70269;DHT22;58514;48.398;-4.274;2022-09-09T14:36:46;19.80;96.20
70269;DHT22;58514;48.398;-4.274;2022-09-09T14:39:12;19.80;95.70
70269;DHT22;58514;48.398;-4.274;2022-09-09T14:41:38;19.70;94.90
70269;DHT22;58514;48.398;-4.274;2022-09-09T14:44:03;19.70;95.70
70269;DHT22;58514;48.398;-4.274;2022-09-09T14:46:29;19.70;94.10
70269;DHT22;58514;48.398;-4.274;2022-09-09T14:48:54;19.70;94.40
70269;DHT22;58514;48.398;-4.274;2022-09-09T14:51:21;19.70;96.10
70269;DHT22;58514;48.398;-4.274;2022-09-09T14:53:54;19.80;96.80
70269;DHT22;58514;48.398;-4.274;2022-09-09T14:56:21;19.90;97.00
70269;DHT22;58514;48.398;-4.274;2022-09-09T14:58:48;20.00;96.80
70269;DHT22;58514;48.398;-4.274;2022-09-09T15:01:15;20.00;96.20
70269;DHT22;58514;48.398;-4.274;2022-09-09T15:03:41;20.00;96.70
70269;DHT22;58514;48.398;-4.274;2022-09-09T15:06:09;19.90;96.70
70269;DHT22;58514;48.398;-4.274;2022-09-09T15:08:36;19.80;95.70
70269;DHT22;58514;48.398;-4.274;2022-09-09T15:11:03;19.80;95.50
70269;DHT22;58514;48.398;-4.274;2022-09-09T15:13:29;19.70;94.60
70269;DHT22;58514;48.398;-4.274;2022-09-09T15:15:54;19.70;96.40
70269;DHT22;58514;48.398;-4.274;2022-09-09T15:18:20;19.70;97.00
70269;DHT22;58514;48.398;-4.274;2022-09-09T15:20:46;19.70;94.90
70269;DHT22;58514;48.398;-4.274;2022-09-09T15:23:13;19.70;96.10
70269;DHT22;58514;48.398;-4.274;2022-09-09T15:25:49;19.70;96.40
70269;DHT22;58514;48.398;-4.274;2022-09-09T15:28:15;19.60;95.20
70269;DHT22;58514;48.398;-4.274;2022-09-09T15:30:41;19.50;96.00
70269;DHT22;58514;48.398;-4.274;2022-09-09T15:33:09;19.50;95.90
70269;DHT22;58514;48.398;-4.274;2022-09-09T15:35:35;19.50;96.20
70269;DHT22;58514;48.398;-4.274;2022-09-09T15:38:01;19.50;97.20
70269;DHT22;58514;48.398;-4.274;2022-09-09T15:40:27;19.50;97.00
70269;DHT22;58514;48.398;-4.274;2022-09-09T15:42:53;19.50;97.00
70269;DHT22;58514;48.398;-4.274;2022-09-09T15:45:18;19.50;96.50
70269;DHT22;58514;48.398;-4.274;2022-09-09T15:47:46;19.50;96.50
70269;DHT22;58514;48.398;-4.274;2022-09-09T15:50:12;19.50;97.00
70269;DHT22;58514;48.398;-4.274;2022-09-09T15:52:37;19.50;97.30
70269;DHT22;58514;48.398;-4.274;2022-09-09T15:55:03;19.50;96.90
70269;DHT22;58514;48.398;-4.274;2022-09-09T15:57:29;19.50;95.70
70269;DHT22;58514;48.398;-4.274;2022-09-09T15:59:54;19.50;96.60
70269;DHT22;58514;48.398;-4.274;2022-09-09T16:02:20;19.40;96.00
70269;DHT22;58514;48.398;-4.274;2022-09-09T16:04:45;19.40;97.00
70269;DHT22;58514;48.398;-4.274;2022-09-09T16:07:11;19.40;96.80
70269;DHT22;58514;48.398;-4.274;2022-09-09T16:09:36;19.30;97.00
70269;DHT22;58514;48.398;-4.274;2022-09-09T16:12:03;19.30;97.10
70269;DHT22;58514;48.398;-4.274;2022-09-09T16:14:31;19.30;97.50
70269;DHT22;58514;48.398;-4.274;2022-09-09T16:16:59;19.40;94.60
70269;DHT22;58514;48.398;-4.274;2022-09-09T16:19:25;19.30;96.70
70269;DHT22;58514;48.398;-4.274;2022-09-09T16:21:51;19.20;96.00
70269;DHT22;58514;48.398;-4.274;2022-09-09T16:24:18;19.10;97.30
70269;DHT22;58514;48.398;-4.274;2022-09-09T16:26:44;19.10;97.60
70269;DHT22;58514;48.398;-4.274;2022-09-09T16:29:10;19.10;97.60
70269;DHT22;58514;48.398;-4.274;2022-09-09T16:31:36;19.10;98.20
70269;DHT22;58514;48.398;-4.274;2022-09-09T16:34:02;19.10;98.00
70269;DHT22;58514;48.398;-4.274;2022-09-09T16:36:32;19.00;97.80
70269;DHT22;58514;48.398;-4.274;2022-09-09T16:39:00;19.00;98.20
70269;DHT22;58514;48.398;-4.274;2022-09-09T16:41:26;18.90;98.50
70269;DHT22;58514;48.398;-4.274;2022-09-09T16:43:53;18.90;98.20
70269;DHT22;58514;48.398;-4.274;2022-09-09T16:46:19;18.90;98.40
70269;DHT22;58514;48.398;-4.274;2022-09-09T16:48:45;18.90;98.70
70269;DHT22;58514;48.398;-4.274;2022-09-09T16:51:22;18.90;98.90
70269;DHT22;58514;48.398;-4.274;2022-09-09T16:53:51;18.90;99.00
70269;DHT22;58514;48.398;-4.274;2022-09-09T16:56:17;19.00;99.30
70269;DHT22;58514;48.398;-4.274;2022-09-09T16:58:48;19.00;99.40
70269;DHT22;58514;48.398;-4.274;2022-09-09T17:01:14;19.00;96.50
70269;DHT22;58514;48.398;-4.274;2022-09-09T17:03:40;18.90;98.20
70269;DHT22;58514;48.398;-4.274;2022-09-09T17:06:12;18.90;98.70
70269;DHT22;58514;48.398;-4.274;2022-09-09T17:08:38;18.90;98.60
70269;DHT22;58514;48.398;-4.274;2022-09-09T17:11:13;18.80;98.20
70269;DHT22;58514;48.398;-4.274;2022-09-09T17:13:42;18.80;98.20
70269;DHT22;58514;48.398;-4.274;2022-09-09T17:16:08;18.70;98.50
70269;DHT22;58514;48.398;-4.274;2022-09-09T17:18:34;18.80;97.50
70269;DHT22;58514;48.398;-4.274;2022-09-09T17:21:04;18.70;98.60
70269;DHT22;58514;48.398;-4.274;2022-09-09T17:23:32;18.70;98.40
70269;DHT22;58514;48.398;-4.274;2022-09-09T17:25:58;18.60;97.20
70269;DHT22;58514;48.398;-4.274;2022-09-09T17:28:25;18.60;98.70
70269;DHT22;58514;48.398;-4.274;2022-09-09T17:30:59;18.60;99.10
70269;DHT22;58514;48.398;-4.274;2022-09-09T17:33:27;18.70;99.30
70269;DHT22;58514;48.398;-4.274;2022-09-09T17:35:53;18.70;99.00
70269;DHT22;58514;48.398;-4.274;2022-09-09T17:38:19;18.70;99.20
70269;DHT22;58514;48.398;-4.274;2022-09-09T17:40:45;18.70;99.00
70269;DHT22;58514;48.398;-4.274;2022-09-09T17:43:10;18.70;99.00
70269;DHT22;58514;48.398;-4.274;2022-09-09T17:45:36;18.60;99.00
70269;DHT22;58514;48.398;-4.274;2022-09-09T17:48:02;18.60;98.90
70269;DHT22;58514;48.398;-4.274;2022-09-09T17:50:29;18.60;99.20
70269;DHT22;58514;48.398;-4.274;2022-09-09T17:52:57;18.60;98.70
70269;DHT22;58514;48.398;-4.274;2022-09-09T17:55:22;18.60;99.20